Concrete, North Dakota
Current Conditions -  °F | °C
As of 11:15 AM on Wednesday 26 Nov 2014 (Local Time) from K2C8 Reporting Station
Few Clouds Few Clouds  
Wind Chill: -20°   Ceiling: Unl
Heat Index: -2°   Visibility: 8mi
Dew Point: -9°   Wind: 12mph
Humidity: 71%   Direction: 350°N
Pressure: 30.48"   Gusts: 18mph
Location:  48.8218°N, 97.697°W
Report Text: K2C8 261715Z AUTO 35010G16KT 8SM FEW007 M19/M23 A3048 RMK AO2
Loading
Personal Weather Stations






























Interactive Weather Map New forecast layout! Learn more

10-Day Weather Forecast

Advertisements
Track Severe Weather on mobile